createdAt,value
2018-02-02T00:01:07.884Z,42.33
2018-02-02T00:03:37.469Z,46.07
2018-02-02T00:06:03.460Z,55.47
2018-02-02T00:08:29.465Z,83.40
2018-02-02T00:10:55.477Z,81.30
2018-02-02T00:16:07.025Z,51.73
2018-02-02T00:18:32.998Z,49.93
2018-02-02T00:20:58.980Z,53.30
2018-02-02T00:23:26.088Z,57.47
2018-02-02T00:25:52.131Z,55.53
2018-02-02T00:28:18.197Z,48.40
2018-02-02T00:30:44.161Z,60.97
2018-02-02T00:33:14.128Z,53.70
2018-02-02T00:35:40.101Z,57.73
2018-02-02T00:38:06.109Z,51.63
2018-02-02T00:40:32.131Z,56.67
2018-02-02T00:42:58.144Z,71.40
2018-02-02T00:45:24.164Z,78.23
2018-02-02T00:47:50.173Z,57.27
2018-02-02T00:50:16.229Z,52.57
2018-02-02T00:52:42.213Z,48.93
2018-02-02T00:55:13.030Z,45.27
2018-02-02T00:57:39.044Z,43.10
2018-02-02T01:00:05.065Z,46.73
2018-02-02T01:02:31.040Z,44.90
2018-02-02T01:04:58.057Z,40.80
2018-02-02T01:07:24.075Z,42.80
2018-02-02T01:09:50.057Z,40.67
2018-02-02T01:12:16.085Z,44.17
2018-02-02T01:14:50.006Z,39.73
2018-02-02T01:17:16.024Z,44.80
2018-02-02T01:19:42.045Z,44.77
2018-02-02T01:22:08.024Z,37.33
2018-02-02T01:24:40.565Z,43.47
2018-02-02T01:27:06.577Z,40.23
2018-02-02T01:29:32.565Z,35.80
2018-02-02T01:31:58.545Z,39.20
2018-02-02T01:34:29.345Z,48.40
2018-02-02T01:36:55.366Z,43.40
2018-02-02T01:39:21.396Z,44.23
2018-02-02T01:41:47.416Z,51.80
2018-02-02T01:44:26.930Z,53.93
2018-02-02T01:46:52.917Z,42.67
2018-02-02T01:49:18.933Z,43.17
2018-02-02T01:51:44.953Z,41.33
2018-02-02T01:54:14.332Z,41.33
2018-02-02T01:56:40.314Z,37.70
2018-02-02T01:59:06.308Z,36.27
2018-02-02T02:01:32.390Z,39.83
2018-02-02T02:04:06.794Z,36.60
2018-02-02T02:06:32.817Z,33.47
2018-02-02T02:08:58.837Z,33.20
2018-02-02T02:11:24.816Z,33.37
2018-02-02T02:13:53.961Z,32.53
2018-02-02T02:16:19.973Z,30.03
2018-02-02T02:18:45.988Z,33.13
2018-02-02T02:21:12.088Z,32.43
2018-02-02T02:23:44.924Z,29.27
2018-02-02T02:26:10.904Z,32.33
2018-02-02T02:28:36.921Z,35.30
2018-02-02T02:31:02.897Z,31.10
2018-02-02T02:33:34.168Z,31.93
2018-02-02T02:36:00.184Z,33.90
2018-02-02T02:38:26.196Z,32.57
2018-02-02T02:40:52.209Z,32.93
2018-02-02T02:43:25.020Z,31.93
2018-02-02T02:45:51.048Z,31.50
2018-02-02T02:48:17.065Z,36.53
2018-02-02T02:50:43.049Z,33.80
2018-02-02T02:53:12.553Z,33.03
2018-02-02T02:55:38.564Z,34.13
2018-02-02T02:58:04.577Z,35.10
2018-02-02T03:00:30.613Z,34.03
2018-02-02T03:05:45.453Z,40.87
2018-02-02T03:08:11.431Z,39.67
2018-02-02T03:10:37.459Z,44.00
2018-02-02T03:13:09.388Z,36.23
2018-02-02T03:15:35.372Z,36.80
2018-02-02T03:18:01.393Z,37.20
2018-02-02T03:20:27.415Z,41.67
2018-02-02T03:22:59.489Z,35.73
2018-02-02T03:25:25.509Z,39.13
2018-02-02T03:27:51.489Z,39.10
2018-02-02T03:30:17.513Z,37.13
2018-02-02T03:32:43.537Z,41.57
2018-02-02T03:35:09.508Z,41.40
2018-02-02T03:37:35.489Z,37.20
2018-02-02T03:40:01.504Z,38.43
2018-02-02T03:42:27.523Z,40.40
2018-02-02T03:45:00.857Z,39.30
2018-02-02T03:47:26.864Z,39.80
2018-02-02T03:49:52.877Z,35.03
2018-02-02T03:52:18.856Z,37.47
2018-02-02T03:54:48.424Z,32.20
2018-02-02T03:57:14.433Z,37.00
2018-02-02T03:59:40.440Z,34.07
2018-02-02T04:02:06.500Z,33.27
2018-02-02T04:04:37.524Z,31.77
2018-02-02T04:07:03.533Z,31.93
2018-02-02T04:09:29.517Z,34.13
2018-02-02T04:11:55.509Z,45.27
2018-02-02T04:14:24.792Z,39.90
2018-02-02T04:16:50.772Z,38.17
2018-02-02T04:19:16.812Z,32.57
2018-02-02T04:21:42.784Z,32.70
2018-02-02T04:24:22.412Z,31.70
2018-02-02T04:26:48.392Z,29.80
2018-02-02T04:29:14.448Z,28.60
2018-02-02T04:31:40.435Z,27.83
2018-02-02T04:34:10.135Z,29.50
2018-02-02T04:36:36.227Z,30.57
2018-02-02T04:39:02.289Z,32.20
2018-02-02T04:41:28.305Z,27.87
2018-02-02T04:44:04.342Z,27.47
2018-02-02T04:46:30.333Z,31.33
2018-02-02T04:48:56.369Z,27.47
2018-02-02T04:51:22.353Z,29.07
2018-02-02T04:53:51.536Z,27.80
2018-02-02T04:56:17.512Z,28.30
2018-02-02T04:58:43.521Z,30.27
2018-02-02T05:01:09.536Z,29.93
2018-02-02T05:03:40.849Z,29.47
2018-02-02T05:06:06.865Z,32.20
2018-02-02T05:08:32.885Z,27.07
2018-02-02T05:10:58.854Z,27.87
2018-02-02T05:13:26.081Z,31.27
2018-02-02T05:15:52.116Z,31.87
2018-02-02T05:18:18.135Z,29.47
2018-02-02T05:20:44.113Z,41.33
2018-02-02T05:23:14.080Z,30.23
2018-02-02T05:25:40.103Z,36.30
2018-02-02T05:28:06.120Z,43.60
2018-02-02T05:30:32.144Z,34.30
2018-02-02T05:33:01.640Z,33.73
2018-02-02T05:35:27.697Z,32.93
2018-02-02T05:37:53.709Z,35.17
2018-02-02T05:40:19.724Z,30.73
2018-02-02T05:42:49.688Z,34.57
2018-02-02T05:45:15.674Z,28.77
2018-02-02T05:47:41.693Z,40.47
2018-02-02T05:50:07.669Z,38.27
2018-02-02T05:55:22.037Z,37.00
2018-02-02T05:57:48.061Z,37.00
2018-02-02T06:00:14.059Z,36.73
2018-02-02T06:02:48.618Z,38.10
2018-02-02T06:05:14.637Z,46.40
2018-02-02T06:07:40.620Z,52.00
2018-02-02T06:10:06.640Z,42.47
2018-02-02T06:12:50.777Z,41.97
2018-02-02T06:15:16.753Z,45.67
2018-02-02T06:17:42.771Z,45.63
2018-02-02T06:20:08.765Z,37.97
2018-02-02T06:22:42.092Z,41.00
2018-02-02T06:25:08.110Z,40.33
2018-02-02T06:27:34.133Z,44.23
2018-02-02T06:30:00.151Z,39.80
2018-02-02T06:32:28.268Z,39.67
2018-02-02T06:34:54.281Z,36.70
2018-02-02T06:37:20.265Z,44.33
2018-02-02T06:39:46.240Z,36.57
2018-02-02T06:42:12.252Z,38.73
2018-02-02T06:44:38.269Z,40.00
2018-02-02T06:47:04.258Z,37.83
2018-02-02T06:49:30.279Z,41.97
2018-02-02T06:51:56.301Z,39.87
2018-02-02T06:54:22.301Z,42.47
2018-02-02T07:03:30.449Z,49.67
2018-02-02T07:05:56.437Z,47.23
2018-02-02T07:08:22.453Z,42.07
2018-02-02T07:10:48.476Z,43.93
2018-02-02T07:13:26.233Z,54.63
2018-02-02T07:15:52.253Z,47.43
2018-02-02T07:18:18.281Z,51.80
2018-02-02T07:20:44.314Z,54.03
2018-02-02T07:23:11.399Z,47.87
2018-02-02T07:25:37.356Z,49.63
2018-02-02T07:28:03.376Z,51.37
2018-02-02T07:30:29.398Z,57.33
2018-02-02T07:32:59.897Z,66.97
2018-02-02T07:35:25.916Z,70.10
2018-02-02T07:37:51.933Z,62.83
2018-02-02T07:40:17.944Z,57.27
2018-02-02T07:42:47.965Z,35.50
2018-02-02T07:45:13.976Z,38.07
2018-02-02T07:47:39.953Z,31.73
2018-02-02T07:50:05.965Z,29.93
2018-02-02T07:52:34.212Z,27.87
2018-02-02T07:55:00.188Z,33.93
2018-02-02T07:57:26.210Z,36.87
2018-02-02T07:59:52.192Z,43.07
2018-02-02T08:02:23.002Z,59.10
2018-02-02T08:04:49.053Z,65.17
2018-02-02T08:07:15.090Z,78.80
2018-02-02T08:09:41.137Z,86.80
2018-02-02T08:12:08.233Z,73.83
2018-02-02T08:14:34.208Z,77.63
2018-02-02T08:17:00.192Z,59.97
2018-02-02T08:19:26.201Z,187.00
2018-02-02T08:21:52.213Z,220.77
2018-02-02T08:24:18.196Z,444.80
2018-02-02T08:26:44.247Z,472.33
2018-02-02T08:29:10.228Z,212.80
2018-02-02T08:31:36.240Z,92.37
2018-02-02T08:34:03.282Z,57.27
2018-02-02T08:36:29.302Z,50.00
2018-02-02T08:38:55.324Z,46.10
2018-02-02T08:41:21.325Z,53.43
2018-02-02T08:43:52.641Z,49.83
2018-02-02T08:46:18.676Z,40.60
2018-02-02T08:48:44.692Z,43.33
2018-02-02T08:51:10.713Z,33.20
2018-02-02T08:53:47.635Z,25.90
2018-02-02T08:56:13.654Z,30.37
2018-02-02T08:58:39.641Z,23.97
2018-02-02T09:01:11.656Z,25.43
2018-02-02T09:03:39.703Z,25.70
2018-02-02T09:06:05.731Z,20.00
2018-02-02T09:08:31.753Z,35.13
2018-02-02T09:10:57.769Z,23.70
2018-02-02T09:13:32.958Z,30.30
2018-02-02T09:15:58.981Z,31.03
2018-02-02T09:18:24.972Z,20.77
2018-02-02T09:20:50.980Z,19.97
2018-02-02T09:23:17.077Z,24.60
2018-02-02T09:25:43.097Z,19.87
2018-02-02T09:28:09.085Z,20.23
2018-02-02T09:30:35.106Z,28.77
2018-02-02T09:33:05.117Z,14.07
2018-02-02T09:35:31.157Z,17.10
2018-02-02T09:37:57.176Z,25.00
2018-02-02T09:40:23.197Z,13.83
2018-02-02T09:42:50.360Z,18.20
2018-02-02T09:45:16.378Z,13.90
2018-02-02T09:47:42.438Z,14.67
2018-02-02T09:50:08.461Z,15.63
2018-02-02T09:52:38.389Z,14.73
2018-02-02T09:55:04.416Z,15.93
2018-02-02T09:57:30.401Z,15.50
2018-02-02T09:59:56.669Z,16.83
2018-02-02T10:02:22.848Z,16.03
2018-02-02T10:04:48.825Z,12.90
2018-02-02T10:07:14.886Z,13.67
2018-02-02T10:09:40.921Z,17.83
2018-02-02T10:12:07.008Z,14.17
2018-02-02T10:14:33.037Z,12.43
2018-02-02T10:16:59.021Z,19.33
2018-02-02T10:19:25.037Z,14.17
2018-02-02T10:21:56.100Z,14.87
2018-02-02T10:24:22.129Z,13.90
2018-02-02T10:26:48.137Z,13.47
2018-02-02T10:29:14.152Z,14.23
2018-02-02T10:31:43.848Z,13.17
2018-02-02T10:34:09.836Z,13.30
2018-02-02T10:36:35.822Z,11.80
2018-02-02T10:39:01.894Z,14.57
2018-02-02T10:41:27.905Z,12.10
2018-02-02T10:43:53.921Z,15.40
2018-02-02T10:46:19.908Z,12.73
2018-02-02T10:48:45.993Z,13.80
2018-02-02T10:51:12.021Z,12.83
2018-02-02T10:53:39.229Z,12.03
2018-02-02T10:56:05.212Z,11.30
2018-02-02T10:58:31.193Z,10.80
2018-02-02T11:01:03.168Z,14.73
2018-02-02T11:03:34.244Z,12.13
2018-02-02T11:06:00.229Z,15.67
2018-02-02T11:08:26.212Z,11.53
2018-02-02T11:10:52.233Z,11.40
2018-02-02T11:13:22.734Z,12.47
2018-02-02T11:15:48.752Z,10.60
2018-02-02T11:18:14.865Z,12.87
2018-02-02T11:20:40.881Z,10.07
2018-02-02T11:23:10.504Z,9.77
2018-02-02T11:25:36.529Z,9.53
2018-02-02T11:28:02.526Z,11.97
2018-02-02T11:30:28.557Z,10.70
2018-02-02T11:32:54.705Z,9.53
2018-02-02T11:35:20.724Z,10.03
2018-02-02T11:37:46.756Z,16.10
2018-02-02T11:40:12.740Z,11.63
2018-02-02T11:42:46.400Z,11.23
2018-02-02T11:45:12.425Z,10.30
2018-02-02T11:47:38.404Z,9.97
2018-02-02T11:50:04.425Z,15.53
2018-02-02T11:52:31.508Z,10.83
2018-02-02T11:54:57.529Z,9.70
2018-02-02T11:57:23.568Z,11.70
2018-02-02T11:59:49.540Z,9.93
2018-02-02T12:02:16.792Z,11.87
2018-02-02T12:04:42.815Z,12.83
2018-02-02T12:07:08.889Z,9.93
2018-02-02T12:09:34.913Z,10.07
2018-02-02T12:12:01.036Z,9.87
2018-02-02T12:14:27.053Z,9.67
2018-02-02T12:16:53.089Z,10.83
2018-02-02T12:19:19.189Z,9.57
2018-02-02T12:22:03.217Z,10.37
2018-02-02T12:24:48.028Z,10.23
2018-02-02T12:30:30.390Z,14.87
2018-02-02T12:35:46.196Z,13.60
2018-02-02T12:38:12.252Z,11.70
2018-02-02T12:40:38.325Z,14.53
2018-02-02T12:43:09.280Z,10.47
2018-02-02T12:45:35.305Z,11.17
2018-02-02T12:48:01.331Z,10.67
2018-02-02T12:50:33.781Z,10.90
2018-02-02T12:53:01.413Z,10.37
2018-02-02T12:55:27.429Z,10.50
2018-02-02T12:57:53.437Z,10.87
2018-02-02T13:00:20.377Z,11.37
2018-02-02T13:02:55.164Z,13.37
2018-02-02T13:05:21.141Z,12.03
2018-02-02T13:07:47.194Z,12.40
2018-02-02T13:10:13.213Z,11.93
2018-02-02T13:12:46.055Z,11.93
2018-02-02T13:15:12.049Z,15.10
2018-02-02T13:17:38.058Z,12.73
2018-02-02T13:20:04.046Z,11.97
2018-02-02T13:22:36.606Z,12.87
2018-02-02T13:25:02.672Z,12.30
2018-02-02T13:27:28.693Z,11.53
2018-02-02T13:29:54.677Z,12.20
2018-02-02T13:32:22.657Z,13.23
2018-02-02T13:34:48.666Z,12.50
2018-02-02T13:37:14.661Z,11.63
2018-02-02T13:39:40.677Z,15.07
2018-02-02T13:42:07.760Z,13.47
2018-02-02T13:44:33.741Z,12.03
2018-02-02T13:46:59.756Z,12.30
2018-02-02T13:49:25.732Z,15.30
2018-02-02T13:51:57.537Z,12.57
2018-02-02T13:54:23.541Z,13.63
2018-02-02T13:56:49.525Z,13.97
2018-02-02T13:59:15.528Z,16.47
2018-02-02T14:01:51.573Z,13.50
2018-02-02T14:04:17.578Z,14.17
2018-02-02T14:06:43.588Z,17.07
2018-02-02T14:09:09.605Z,14.63
2018-02-02T14:11:50.149Z,15.07
2018-02-02T14:14:16.146Z,14.97
2018-02-02T14:16:42.163Z,14.83
2018-02-02T14:19:08.153Z,15.07
2018-02-02T14:21:40.129Z,16.43
2018-02-02T14:24:06.120Z,19.03
2018-02-02T14:26:32.133Z,21.67
2018-02-02T14:28:58.121Z,20.60
2018-02-02T14:31:26.373Z,20.53
2018-02-02T14:33:52.378Z,16.97
2018-02-02T14:36:18.401Z,16.70
2018-02-02T14:38:44.424Z,22.40
2018-02-02T14:41:12.585Z,17.47
2018-02-02T14:43:38.612Z,16.77
2018-02-02T14:46:04.633Z,16.53
2018-02-02T14:48:30.652Z,17.83
2018-02-02T14:50:56.676Z,17.90
2018-02-02T14:53:22.696Z,17.63
2018-02-02T14:55:48.712Z,19.40
2018-02-02T14:58:14.743Z,16.13
2018-02-02T15:00:40.753Z,30.27
2018-02-02T15:03:13.912Z,22.90
2018-02-02T15:05:39.984Z,27.17
2018-02-02T15:08:05.972Z,28.70
2018-02-02T15:10:31.985Z,53.03
2018-02-02T15:13:14.791Z,49.77
2018-02-02T15:15:40.885Z,49.03
2018-02-02T15:18:06.925Z,45.37
2018-02-02T15:20:32.969Z,59.80
2018-02-02T15:23:14.837Z,57.40
2018-02-02T15:25:40.882Z,63.43
2018-02-02T15:28:06.905Z,60.17
2018-02-02T15:30:32.964Z,52.43
2018-02-02T15:33:05.173Z,49.93
2018-02-02T15:35:31.210Z,58.10
2018-02-02T15:37:57.243Z,47.53
2018-02-02T15:40:23.273Z,65.50
2018-02-02T15:42:54.133Z,51.70
2018-02-02T15:45:20.174Z,54.17
2018-02-02T15:47:46.166Z,35.87
2018-02-02T15:50:12.258Z,33.10
2018-02-02T15:52:38.366Z,42.27
2018-02-02T15:55:04.357Z,42.07
2018-02-02T15:57:30.344Z,30.50
2018-02-02T15:59:56.360Z,34.33
2018-02-02T16:02:28.188Z,37.27
2018-02-02T16:04:54.230Z,33.27
2018-02-02T16:07:20.222Z,48.77
2018-02-02T16:09:46.241Z,39.60
2018-02-02T16:12:13.381Z,46.37
2018-02-02T16:14:39.401Z,53.30
2018-02-02T16:17:05.434Z,40.97
2018-02-02T16:19:31.461Z,42.17
2018-02-02T16:22:03.580Z,45.17
2018-02-02T16:24:29.653Z,46.53
2018-02-02T16:26:55.647Z,48.43
2018-02-02T16:29:21.654Z,40.27
2018-02-02T16:31:57.792Z,45.70
2018-02-02T16:34:23.818Z,47.70
2018-02-02T16:36:49.893Z,62.33
2018-02-02T16:39:16.009Z,58.73
2018-02-02T16:41:50.962Z,63.43
2018-02-02T16:44:17.077Z,53.50
2018-02-02T16:46:43.187Z,52.60
2018-02-02T16:49:09.209Z,59.63
2018-02-02T16:51:36.457Z,58.87
2018-02-02T16:54:02.537Z,51.03
2018-02-02T16:56:28.604Z,50.67
2018-02-02T16:58:55.434Z,55.20
2018-02-02T17:01:33.905Z,60.77
2018-02-02T17:03:59.968Z,54.63
2018-02-02T17:06:26.877Z,43.80
2018-02-02T17:08:52.953Z,37.67
2018-02-02T17:11:23.695Z,42.47
2018-02-02T17:13:49.776Z,47.30
2018-02-02T17:16:16.380Z,41.43
2018-02-02T17:18:42.479Z,41.57
2018-02-02T17:21:11.537Z,31.03
2018-02-02T17:23:37.561Z,22.03
2018-02-02T17:26:03.563Z,27.13
2018-02-02T17:28:29.599Z,21.63
2018-02-02T17:30:55.605Z,22.00
2018-02-02T17:33:21.629Z,23.27
2018-02-02T17:35:47.648Z,21.37
2018-02-02T17:38:13.638Z,22.90
2018-02-02T17:40:47.421Z,31.77
2018-02-02T17:43:13.405Z,30.07
2018-02-02T17:45:39.447Z,28.17
2018-02-02T17:48:06.041Z,31.87
2018-02-02T17:50:32.077Z,29.90
2018-02-02T17:52:58.104Z,31.20
2018-02-02T17:55:24.147Z,31.67
2018-02-02T17:57:50.184Z,27.70
2018-02-02T18:00:21.069Z,34.90
2018-02-02T18:02:47.110Z,31.60
2018-02-02T18:05:13.240Z,32.30
2018-02-02T18:07:39.310Z,31.63
2018-02-02T18:10:05.381Z,30.23
2018-02-02T18:12:33.453Z,31.70
2018-02-02T18:14:59.477Z,32.03
2018-02-02T18:17:25.478Z,33.57
2018-02-02T18:19:51.545Z,38.47
2018-02-02T18:22:22.778Z,42.40
2018-02-02T18:24:49.675Z,56.90
2018-02-02T18:27:15.690Z,66.13
2018-02-02T18:29:41.929Z,51.07
2018-02-02T18:32:14.881Z,44.63
2018-02-02T18:34:40.879Z,58.13
2018-02-02T18:37:06.906Z,36.40
2018-02-02T18:39:32.944Z,42.43
2018-02-02T18:42:02.182Z,47.80
2018-02-02T18:44:29.520Z,48.53
2018-02-02T18:46:55.554Z,43.13
2018-02-02T18:49:22.133Z,52.50
2018-02-02T18:51:55.417Z,47.20
2018-02-02T18:54:21.493Z,42.03
2018-02-02T18:56:48.489Z,49.77
2018-02-02T18:59:14.529Z,55.53
2018-02-02T19:01:43.744Z,46.20
2018-02-02T19:04:09.734Z,48.17
2018-02-02T19:06:35.765Z,43.47
2018-02-02T19:09:01.786Z,44.07
2018-02-02T19:11:33.265Z,51.20
2018-02-02T19:13:59.254Z,46.20
2018-02-02T19:16:31.461Z,56.60
2018-02-02T19:18:57.450Z,43.50
2018-02-02T19:21:23.517Z,43.33
2018-02-02T19:23:49.543Z,44.93
2018-02-02T19:26:15.529Z,40.77
2018-02-02T19:28:41.508Z,41.63
2018-02-02T19:31:13.709Z,40.10
2018-02-02T19:33:39.697Z,40.53
2018-02-02T19:36:05.738Z,32.50
2018-02-02T19:38:32.073Z,36.57
2018-02-02T19:40:59.169Z,35.03
2018-02-02T19:43:25.150Z,32.37
2018-02-02T19:45:51.203Z,40.93
2018-02-02T19:48:17.253Z,45.03
2018-02-02T19:50:45.333Z,43.40
2018-02-02T19:53:11.378Z,36.63
2018-02-02T19:55:37.449Z,42.77
2018-02-02T19:58:03.536Z,48.57
2018-02-02T20:00:34.425Z,67.90
2018-02-02T20:03:00.415Z,50.53
2018-02-02T20:05:26.417Z,29.50
2018-02-02T20:07:52.445Z,42.20
2018-02-02T20:10:22.241Z,49.67
2018-02-02T20:12:48.260Z,45.13
2018-02-02T20:15:14.344Z,38.87
2018-02-02T20:17:40.361Z,38.63
2018-02-02T20:20:13.090Z,28.53
2018-02-02T20:22:39.118Z,40.23
2018-02-02T20:25:05.135Z,25.30
2018-02-02T20:27:31.119Z,18.33
2018-02-02T20:29:57.147Z,24.10
2018-02-02T20:32:23.213Z,22.77
2018-02-02T20:34:49.278Z,19.77
2018-02-02T20:37:15.313Z,18.77
2018-02-02T20:39:41.376Z,28.30
2018-02-02T20:42:08.384Z,22.70
2018-02-02T20:44:34.373Z,20.97
2018-02-02T20:47:00.389Z,16.27
2018-02-02T20:49:26.414Z,19.60
2018-02-02T20:52:00.056Z,15.23
2018-02-02T20:54:26.065Z,14.97
2018-02-02T20:56:52.085Z,16.13
2018-02-02T20:59:18.121Z,14.83
2018-02-02T21:01:48.301Z,14.67
2018-02-02T21:04:14.320Z,15.33
2018-02-02T21:06:40.391Z,17.53
2018-02-02T21:09:06.369Z,13.90
2018-02-02T21:11:38.981Z,14.03
2018-02-02T21:14:04.969Z,16.77
2018-02-02T21:16:30.952Z,18.50
2018-02-02T21:18:56.991Z,17.30
2018-02-02T21:24:08.445Z,15.30
2018-02-02T21:26:34.469Z,21.30
2018-02-02T21:29:00.453Z,20.93
2018-02-02T21:31:37.553Z,17.83
2018-02-02T21:34:03.593Z,18.50
2018-02-02T21:36:29.582Z,12.93
2018-02-02T21:38:55.593Z,14.77
2018-02-02T21:41:26.053Z,14.30
2018-02-02T21:43:52.077Z,19.10
2018-02-02T21:46:18.066Z,14.43
2018-02-02T21:48:44.093Z,15.50
2018-02-02T21:51:14.100Z,13.70
2018-02-02T21:53:40.112Z,13.07
2018-02-02T21:56:06.104Z,14.40
2018-02-02T21:58:32.121Z,15.60
2018-02-02T22:03:50.885Z,18.50
2018-02-02T22:06:16.905Z,20.37
2018-02-02T22:08:42.916Z,23.13
2018-02-02T22:11:14.972Z,18.73
2018-02-02T22:13:40.993Z,23.20
2018-02-02T22:16:07.018Z,20.83
2018-02-02T22:18:33.028Z,17.47
2018-02-02T22:21:01.254Z,18.90
2018-02-02T22:23:27.233Z,20.70
2018-02-02T22:25:53.236Z,14.97
2018-02-02T22:28:19.291Z,14.90
2018-02-02T22:30:47.493Z,10.93
2018-02-02T22:33:13.501Z,10.03
2018-02-02T22:35:39.509Z,11.47
2018-02-02T22:38:05.525Z,14.83
2018-02-02T22:40:36.809Z,9.70
2018-02-02T22:43:02.797Z,11.77
2018-02-02T22:45:28.777Z,13.20
2018-02-02T22:47:54.789Z,10.07
2018-02-02T22:50:28.504Z,10.40
2018-02-02T22:52:54.525Z,12.57
2018-02-02T22:55:20.540Z,12.87
2018-02-02T22:57:46.597Z,14.03
2018-02-02T23:00:19.077Z,23.00
2018-02-02T23:02:45.081Z,14.77
2018-02-02T23:05:11.085Z,12.37
2018-02-02T23:07:37.097Z,14.17
2018-02-02T23:10:18.708Z,16.17
2018-02-02T23:12:44.716Z,14.63
2018-02-02T23:15:10.697Z,11.10
2018-02-02T23:17:36.700Z,12.33
2018-02-02T23:20:04.858Z,14.40
2018-02-02T23:22:30.912Z,12.57
2018-02-02T23:24:56.916Z,12.57
2018-02-02T23:27:22.920Z,17.60
2018-02-02T23:29:52.334Z,10.07
2018-02-02T23:32:18.312Z,12.23
2018-02-02T23:34:44.320Z,11.00
2018-02-02T23:37:10.356Z,11.43
2018-02-02T23:39:36.336Z,17.20
2018-02-02T23:42:02.436Z,13.50
2018-02-02T23:44:28.440Z,14.10
2018-02-02T23:46:54.445Z,15.77
2018-02-02T23:49:20.448Z,14.47
2018-02-02T23:51:52.356Z,15.27
2018-02-02T23:54:19.232Z,18.93
2018-02-02T23:56:45.291Z,15.77
2018-02-02T23:59:11.310Z,16.93
